createdAt,value
2019-04-07T00:00:48.625Z,100372.20
2019-04-07T00:03:18.491Z,100367.81
2019-04-07T00:05:48.188Z,100366.38
2019-04-07T00:08:17.833Z,100374.53
2019-04-07T00:10:47.044Z,100366.38
2019-04-07T00:13:16.231Z,100371.27
2019-04-07T00:15:45.509Z,100369.75
2019-04-07T00:18:14.715Z,100377.50
2019-04-07T00:20:43.913Z,100376.64
2019-04-07T00:23:13.176Z,100367.92
2019-04-07T00:25:42.971Z,100367.25
2019-04-07T00:28:12.190Z,100365.64
2019-04-07T00:30:41.355Z,100369.35
2019-04-07T00:33:11.277Z,100370.69
2019-04-07T00:35:40.572Z,100368.67
2019-04-07T00:38:09.791Z,100366.00
2019-04-07T00:40:39.180Z,100364.47
2019-04-07T00:43:08.788Z,100366.48
2019-04-07T00:45:38.023Z,100360.44
2019-04-07T00:48:07.732Z,100361.46
2019-04-07T00:50:39.343Z,100361.05
2019-04-07T00:53:08.851Z,100361.05
2019-04-07T00:55:38.585Z,100362.11
2019-04-07T00:58:08.293Z,100360.01
2019-04-07T01:00:39.991Z,100350.30
2019-04-07T01:03:09.505Z,100350.50
2019-04-07T01:05:41.423Z,100352.68
2019-04-07T01:08:09.715Z,100349.50
2019-04-07T01:10:39.071Z,100342.05
2019-04-07T01:13:08.569Z,100342.05
2019-04-07T01:15:38.382Z,100353.45
2019-04-07T01:18:07.832Z,100348.27
2019-04-07T01:20:36.976Z,100345.32
2019-04-07T01:23:06.185Z,100352.61
2019-04-07T01:25:35.753Z,100347.23
2019-04-07T01:28:05.474Z,100343.56
2019-04-07T01:30:34.955Z,100335.53
2019-04-07T01:33:05.336Z,100335.53
2019-04-07T01:35:45.059Z,100342.07
2019-04-07T01:38:05.980Z,100343.90
2019-04-07T01:40:35.406Z,100348.78
2019-04-07T01:43:06.482Z,100341.89
2019-04-07T01:45:46.561Z,100341.41
2019-04-07T01:48:17.303Z,100341.42
2019-04-07T01:50:51.797Z,100348.53
2019-04-07T01:53:22.879Z,100343.44
2019-04-07T01:56:06.469Z,100340.75
2019-04-07T01:58:52.452Z,100341.52
2019-04-07T02:01:32.696Z,100333.95
2019-04-07T02:04:19.548Z,100329.26
2019-04-07T02:07:07.319Z,100332.70
2019-04-07T02:09:54.561Z,100338.97
2019-04-07T02:12:42.328Z,100326.58
2019-04-07T02:15:13.896Z,100333.38
2019-04-07T02:17:45.504Z,100334.84
2019-04-07T02:20:56.779Z,100335.89
2019-04-07T02:23:37.163Z,100329.27
2019-04-07T02:26:08.209Z,100333.52
2019-04-07T02:28:38.989Z,100333.30
2019-04-07T02:31:26.144Z,100332.76
2019-04-07T02:34:03.194Z,100337.91
2019-04-07T02:36:37.580Z,100339.42
2019-04-07T02:39:21.505Z,100338.00
2019-04-07T02:42:08.835Z,100334.46
2019-04-07T02:44:39.702Z,100334.55
2019-04-07T02:47:10.720Z,100327.75
2019-04-07T02:49:44.396Z,100333.21
2019-04-07T02:52:28.096Z,100329.67
2019-04-07T02:55:02.551Z,100332.36
2019-04-07T02:57:47.818Z,100325.65
2019-04-07T03:00:34.295Z,100331.41
2019-04-07T03:03:05.458Z,100322.58
2019-04-07T03:05:36.437Z,100324.41
2019-04-07T03:08:10.280Z,100323.47
2019-04-07T03:10:47.367Z,100319.94
2019-04-07T03:13:18.262Z,100316.95
2019-04-07T03:15:49.100Z,100314.23
2019-04-07T03:18:24.235Z,100317.41
2019-04-07T03:21:01.192Z,100306.86
2019-04-07T03:23:48.641Z,100315.13
2019-04-07T03:26:36.429Z,100318.66
2019-04-07T03:29:07.310Z,100322.02
2019-04-07T03:31:38.853Z,100325.95
2019-04-07T03:34:24.100Z,100313.48
2019-04-07T03:37:25.994Z,100312.90
2019-04-07T03:39:33.346Z,100316.06
2019-04-07T03:42:10.714Z,100315.22
2019-04-07T03:44:41.925Z,100309.00
2019-04-07T03:47:16.470Z,100310.03
2019-04-07T03:49:47.764Z,100310.34
2019-04-07T03:52:36.864Z,100312.05
2019-04-07T03:55:09.288Z,100311.28
2019-04-07T03:57:40.903Z,100309.76
2019-04-07T04:00:43.683Z,100309.76
2019-04-07T04:03:14.787Z,100302.07
2019-04-07T04:05:52.178Z,100302.08
2019-04-07T04:08:24.638Z,100306.50
2019-04-07T04:11:01.730Z,100303.23
2019-04-07T04:13:45.776Z,100309.55
2019-04-07T04:16:14.986Z,100305.34
2019-04-07T04:18:44.729Z,100297.47
2019-04-07T04:21:13.937Z,100302.66
2019-04-07T04:23:44.549Z,100300.64
2019-04-07T04:26:13.892Z,100297.30
2019-04-07T04:28:44.200Z,100296.34
2019-04-07T04:31:14.080Z,100295.95
2019-04-07T04:33:44.308Z,100292.78
2019-04-07T04:36:13.645Z,100292.78
2019-04-07T04:38:43.057Z,100297.30
2019-04-07T04:41:13.211Z,100290.31
2019-04-07T04:43:42.420Z,100298.05
2019-04-07T04:46:12.732Z,100303.63
2019-04-07T04:48:43.003Z,100313.20
2019-04-07T04:51:13.060Z,100304.97
2019-04-07T04:53:42.465Z,100309.45
2019-04-07T04:56:11.631Z,100310.61
2019-04-07T04:58:40.830Z,100308.59
2019-04-07T05:01:10.654Z,100316.65
2019-04-07T05:03:40.546Z,100322.01
2019-04-07T05:06:10.210Z,100322.19
2019-04-07T05:08:39.449Z,100319.69
2019-04-07T05:11:09.141Z,100320.48
2019-04-07T05:13:38.537Z,100328.31
2019-04-07T05:16:08.285Z,100329.66
2019-04-07T05:18:38.200Z,100326.34
2019-04-07T05:21:07.516Z,100324.91
2019-04-07T05:23:36.709Z,100324.81
2019-04-07T05:26:05.896Z,100324.23
2019-04-07T05:28:37.047Z,100331.78
2019-04-07T05:31:07.229Z,100327.17
2019-04-07T05:33:36.773Z,100335.54
2019-04-07T05:36:06.004Z,100334.65
2019-04-07T05:38:35.699Z,100346.72
2019-04-07T05:41:05.429Z,100346.72
2019-04-07T05:43:35.456Z,100347.20
2019-04-07T05:46:07.091Z,100346.45
2019-04-07T05:48:35.638Z,100342.23
2019-04-07T05:51:05.551Z,100345.02
2019-04-07T05:53:34.939Z,100347.11
2019-04-07T05:56:04.362Z,100347.12
2019-04-07T05:58:37.459Z,100341.93
2019-04-07T06:01:05.201Z,100341.93
2019-04-07T06:03:38.620Z,100348.54
2019-04-07T06:06:05.441Z,100354.00
2019-04-07T06:08:38.696Z,100352.75
2019-04-07T06:11:06.201Z,100357.75
2019-04-07T06:13:37.999Z,100359.27
2019-04-07T06:16:07.989Z,100358.37
2019-04-07T06:18:37.868Z,100353.20
2019-04-07T06:21:07.745Z,100358.00
2019-04-07T06:23:37.555Z,100352.70
2019-04-07T06:26:11.183Z,100358.34
2019-04-07T06:28:38.137Z,100358.59
2019-04-07T06:31:08.243Z,100358.59
2019-04-07T06:33:38.628Z,100351.55
2019-04-07T06:36:08.362Z,100362.57
2019-04-07T06:38:41.547Z,100365.38
2019-04-07T06:41:09.441Z,100363.06
2019-04-07T06:43:40.144Z,100363.06
2019-04-07T06:46:17.594Z,100360.20
2019-04-07T06:49:04.545Z,100362.86
2019-04-07T06:51:35.629Z,100372.70
2019-04-07T06:54:06.901Z,100369.06
2019-04-07T06:56:41.096Z,100372.80
2019-04-07T06:59:24.052Z,100372.13
2019-04-07T07:02:10.037Z,100373.23
2019-04-07T07:04:43.558Z,100376.09
2019-04-07T07:07:19.941Z,100385.87
2019-04-07T07:09:59.842Z,100382.20
2019-04-07T07:12:34.972Z,100386.64
2019-04-07T07:15:08.019Z,100383.99
2019-04-07T07:17:38.876Z,100379.58
2019-04-07T07:20:28.695Z,100387.67
2019-04-07T07:23:01.319Z,100386.44
2019-04-07T07:25:32.150Z,100392.92
2019-04-07T07:28:01.685Z,100397.15
2019-04-07T07:30:31.550Z,100393.88
2019-04-07T07:33:00.808Z,100396.87
2019-04-07T07:35:30.025Z,100392.59
2019-04-07T07:37:59.766Z,100395.47
2019-04-07T07:40:29.895Z,100398.67
2019-04-07T07:42:59.576Z,100400.67
2019-04-07T07:45:28.876Z,100400.67
2019-04-07T07:47:58.104Z,100395.28
2019-04-07T07:50:28.377Z,100401.12
2019-04-07T07:52:58.201Z,100397.11
2019-04-07T07:55:28.528Z,100396.40
2019-04-07T07:57:59.342Z,100402.46
2019-04-07T08:00:28.642Z,100401.12
2019-04-07T08:02:58.228Z,100405.05
2019-04-07T08:05:32.279Z,100404.68
2019-04-07T08:07:59.352Z,100406.80
2019-04-07T08:10:29.053Z,100413.25
2019-04-07T08:12:58.574Z,100420.09
2019-04-07T08:15:31.963Z,100419.81
2019-04-07T08:18:03.175Z,100415.04
2019-04-07T08:20:29.793Z,100421.97
2019-04-07T08:22:59.329Z,100423.40
2019-04-07T08:25:29.172Z,100428.19
2019-04-07T08:28:02.163Z,100421.30
2019-04-07T08:30:29.321Z,100427.20
2019-04-07T08:33:00.278Z,100423.61
2019-04-07T08:35:30.883Z,100428.14
2019-04-07T08:38:00.926Z,100422.20
2019-04-07T08:40:30.907Z,100415.05
2019-04-07T08:43:00.467Z,100423.94
2019-04-07T08:45:32.729Z,100420.59
2019-04-07T08:48:01.969Z,100416.44
2019-04-07T08:50:31.175Z,100418.32
2019-04-07T08:53:00.360Z,100418.98
2019-04-07T08:55:29.915Z,100424.13
2019-04-07T08:58:02.218Z,100422.73
2019-04-07T09:00:33.607Z,100420.57
2019-04-07T09:03:08.282Z,100421.13
2019-04-07T09:05:35.448Z,100426.28
2019-04-07T09:08:06.023Z,100422.73
2019-04-07T09:10:41.016Z,100422.55
2019-04-07T09:13:10.455Z,100426.22
2019-04-07T09:15:53.404Z,100420.92
2019-04-07T09:18:24.457Z,100429.15
2019-04-07T09:20:56.053Z,100428.91
2019-04-07T09:23:42.574Z,100427.52
2019-04-07T09:26:17.180Z,100429.30
2019-04-07T09:29:05.114Z,100430.86
2019-04-07T09:31:44.914Z,100427.89
2019-04-07T09:34:34.540Z,100430.23
2019-04-07T09:37:07.867Z,100436.96
2019-04-07T09:40:01.109Z,100434.53
2019-04-07T09:42:46.653Z,100439.08
2019-04-07T09:45:21.300Z,100434.05
2019-04-07T09:48:04.082Z,100433.31
2019-04-07T09:50:38.586Z,100433.91
2019-04-07T09:53:25.789Z,100434.41
2019-04-07T09:55:59.744Z,100436.60
2019-04-07T09:58:47.036Z,100440.46
2019-04-07T10:01:27.820Z,100433.95
2019-04-07T10:03:59.349Z,100437.41
2019-04-07T10:06:42.224Z,100438.44
2019-04-07T10:09:17.169Z,100438.62
2019-04-07T10:11:49.380Z,100432.92
2019-04-07T10:14:23.100Z,100438.56
2019-04-07T10:16:54.586Z,100436.16
2019-04-07T10:19:28.245Z,100433.20
2019-04-07T10:22:02.629Z,100429.24
2019-04-07T10:24:34.644Z,100428.11
2019-04-07T10:27:22.397Z,100429.09
2019-04-07T10:29:53.328Z,100429.91
2019-04-07T10:32:32.785Z,100422.05
2019-04-07T10:35:12.629Z,100420.63
2019-04-07T10:37:55.386Z,100418.33
2019-04-07T10:40:35.174Z,100416.76
2019-04-07T10:43:22.832Z,100414.27
2019-04-07T10:46:00.295Z,100423.20
2019-04-07T10:48:34.250Z,100417.09
2019-04-07T10:51:07.961Z,100418.04
2019-04-07T10:53:54.871Z,100424.64
2019-04-07T10:56:40.575Z,100427.77
2019-04-07T10:59:17.486Z,100424.55
2019-04-07T11:01:49.094Z,100430.30
2019-04-07T11:04:35.151Z,100424.59
2019-04-07T11:07:11.764Z,100426.91
2019-04-07T11:09:52.080Z,100424.72
2019-04-07T11:12:25.085Z,100427.73
2019-04-07T11:15:12.559Z,100424.34
2019-04-07T11:17:43.661Z,100423.72
2019-04-07T11:20:17.096Z,100428.88
2019-04-07T11:22:50.590Z,100427.20
2019-04-07T11:25:38.466Z,100432.20
2019-04-07T11:28:12.264Z,100431.94
2019-04-07T11:30:52.113Z,100428.38
2019-04-07T11:33:23.161Z,100428.45
2019-04-07T11:35:54.009Z,100430.53
2019-04-07T11:38:25.761Z,100435.95
2019-04-07T11:41:12.816Z,100429.59
2019-04-07T11:43:44.289Z,100436.24
2019-04-07T11:46:24.492Z,100437.30
2019-04-07T11:49:02.436Z,100424.58
2019-04-07T11:51:42.530Z,100424.78
2019-04-07T11:54:28.458Z,100430.97
2019-04-07T11:56:59.301Z,100419.91
2019-04-07T11:59:39.353Z,100433.27
2019-04-07T12:02:10.686Z,100430.19
2019-04-07T12:04:44.382Z,100428.25
2019-04-07T12:07:19.245Z,100432.11
2019-04-07T12:09:54.239Z,100432.55
2019-04-07T12:12:25.111Z,100438.75
2019-04-07T12:15:05.251Z,100436.70
2019-04-07T12:20:46.117Z,100435.70
2019-04-07T12:23:33.724Z,100435.48
2019-04-07T12:26:20.390Z,100437.17
2019-04-07T12:29:07.972Z,100436.27
2019-04-07T12:31:59.800Z,100434.98
2019-04-07T12:35:07.428Z,100438.97
2019-04-07T12:37:53.263Z,100437.83
2019-04-07T12:40:30.669Z,100450.40
2019-04-07T12:43:29.128Z,100437.67
2019-04-07T12:46:16.721Z,100446.25
2019-04-07T12:48:48.003Z,100435.16
2019-04-07T12:51:35.231Z,100442.82
2019-04-07T12:54:23.302Z,100436.09
2019-04-07T12:56:54.729Z,100447.77
2019-04-07T12:59:39.214Z,100444.42
2019-04-07T13:02:09.993Z,100444.81
2019-04-07T13:04:44.598Z,100434.91
2019-04-07T13:07:20.414Z,100447.55
2019-04-07T13:09:53.833Z,100445.55
2019-04-07T13:12:30.520Z,100445.47
2019-04-07T13:15:16.559Z,100450.67
2019-04-07T13:17:50.640Z,100445.80
2019-04-07T13:20:40.774Z,100450.46
2019-04-07T13:23:14.494Z,100444.88
2019-04-07T13:25:55.016Z,100446.28
2019-04-07T13:28:40.152Z,100448.52
2019-04-07T13:31:11.311Z,100435.78
2019-04-07T13:33:42.102Z,100447.41
2019-04-07T13:36:16.013Z,100441.88
2019-04-07T13:38:50.157Z,100447.67
2019-04-07T13:41:38.646Z,100447.50
2019-04-07T13:44:07.104Z,100443.94
2019-04-07T13:46:37.532Z,100444.27
2019-04-07T13:49:17.162Z,100445.55
2019-04-07T13:51:51.363Z,100450.04
2019-04-07T13:54:25.368Z,100446.28
2019-04-07T13:56:59.037Z,100438.32
2019-04-07T13:59:44.875Z,100434.44
2019-04-07T14:02:26.387Z,100431.33
2019-04-07T14:05:07.574Z,100433.20
2019-04-07T14:07:37.239Z,100430.49
2019-04-07T14:10:25.606Z,100436.87
2019-04-07T14:12:56.510Z,100435.97
2019-04-07T14:15:28.061Z,100431.43
2019-04-07T14:18:15.560Z,100433.59
2019-04-07T14:21:03.066Z,100427.45
2019-04-07T14:23:40.006Z,100430.54
2019-04-07T14:26:23.318Z,100436.68
2019-04-07T14:29:03.131Z,100433.81
2019-04-07T14:31:43.273Z,100424.66
2019-04-07T14:34:29.351Z,100426.59
2019-04-07T14:37:18.657Z,100439.69
2019-04-07T14:39:55.397Z,100426.46
2019-04-07T14:42:26.374Z,100424.20
2019-04-07T14:45:06.686Z,100428.28
2019-04-07T14:47:40.045Z,100429.20
2019-04-07T14:50:12.094Z,100422.89
2019-04-07T14:52:47.109Z,100427.94
2019-04-07T14:55:24.657Z,100425.11
2019-04-07T14:58:01.732Z,100431.61
2019-04-07T15:00:32.661Z,100416.87
2019-04-07T15:03:02.099Z,100427.75
2019-04-07T15:05:33.109Z,100426.06
2019-04-07T15:08:04.410Z,100421.94
2019-04-07T15:10:36.170Z,100425.36
2019-04-07T15:13:07.066Z,100429.81
2019-04-07T15:15:36.867Z,100431.26
2019-04-07T15:18:06.031Z,100422.06
2019-04-07T15:20:35.223Z,100428.78
2019-04-07T15:23:05.453Z,100421.94
2019-04-07T15:25:35.492Z,100421.70
2019-04-07T15:28:04.820Z,100420.29
2019-04-07T15:30:34.079Z,100422.06
2019-04-07T15:33:04.171Z,100423.09
2019-04-07T15:35:35.245Z,100428.25
2019-04-07T15:38:05.325Z,100427.66
2019-04-07T15:40:36.247Z,100436.61
2019-04-07T15:43:08.672Z,100426.87
2019-04-07T15:45:36.858Z,100422.19
2019-04-07T15:48:06.059Z,100422.14
2019-04-07T15:50:35.472Z,100425.23
2019-04-07T15:53:04.639Z,100426.22
2019-04-07T15:55:45.820Z,100426.46
2019-04-07T15:58:04.997Z,100424.66
2019-04-07T16:00:35.257Z,100432.59
2019-04-07T16:03:05.414Z,100438.09
2019-04-07T16:05:40.371Z,100437.05
2019-04-07T16:08:06.309Z,100433.81
2019-04-07T16:10:35.976Z,100432.27
2019-04-07T16:13:05.396Z,100430.66
2019-04-07T16:15:35.033Z,100438.31
2019-04-07T16:18:14.635Z,100435.08
2019-04-07T16:20:51.316Z,100434.75
2019-04-07T16:23:30.575Z,100433.39
2019-04-07T16:26:10.697Z,100432.88
2019-04-07T16:29:00.108Z,100429.93
2019-04-07T16:31:25.663Z,100442.07
2019-04-07T16:34:05.829Z,100429.30
2019-04-07T16:36:35.561Z,100436.25
2019-04-07T16:39:09.334Z,100435.12
2019-04-07T16:41:39.256Z,100442.07
2019-04-07T16:44:10.575Z,100440.94
2019-04-07T16:46:39.599Z,100449.75
2019-04-07T16:49:11.519Z,100445.91
2019-04-07T16:51:40.451Z,100453.78
2019-04-07T16:54:10.424Z,100449.09
2019-04-07T16:56:41.405Z,100458.24
2019-04-07T16:59:10.714Z,100457.25
2019-04-07T17:01:39.998Z,100459.84
2019-04-07T17:04:09.454Z,100458.09
2019-04-07T17:06:39.073Z,100463.73
2019-04-07T17:09:17.778Z,100460.91
2019-04-07T17:11:47.629Z,100464.02
2019-04-07T17:14:16.970Z,100466.83
2019-04-07T17:16:46.182Z,100470.34
2019-04-07T17:19:16.187Z,100469.49
2019-04-07T17:21:45.537Z,100467.05
2019-04-07T17:24:14.746Z,100466.67
2019-04-07T17:26:43.970Z,100475.95
2019-04-07T17:29:17.075Z,100474.68
2019-04-07T17:31:44.440Z,100473.60
2019-04-07T17:34:14.483Z,100479.83
2019-04-07T17:36:48.478Z,100482.86
2019-04-07T17:39:17.076Z,100486.56
2019-04-07T17:41:49.909Z,100492.14
2019-04-07T17:44:22.072Z,100497.23
2019-04-07T17:46:58.487Z,100489.81
2019-04-07T17:49:43.072Z,100497.03
2019-04-07T17:52:30.044Z,100493.98
2019-04-07T17:55:17.572Z,100508.22
2019-04-07T17:57:48.441Z,100510.87
2019-04-07T18:00:36.219Z,100516.03
2019-04-07T18:03:19.514Z,100520.66
2019-04-07T18:06:02.093Z,100528.09
2019-04-07T18:08:49.590Z,100529.07
2019-04-07T18:11:20.439Z,100532.59
2019-04-07T18:14:07.792Z,100530.42
2019-04-07T18:16:44.739Z,100532.05
2019-04-07T18:19:18.663Z,100533.00
2019-04-07T18:22:02.270Z,100538.20
2019-04-07T18:24:45.059Z,100538.84
2019-04-07T18:27:18.351Z,100536.77
2019-04-07T18:29:49.170Z,100541.75
2019-04-07T18:32:31.895Z,100540.19
2019-04-07T18:35:19.489Z,100550.66
2019-04-07T18:38:08.980Z,100552.80
2019-04-07T18:40:58.354Z,100550.72
2019-04-07T18:43:27.802Z,100555.09
2019-04-07T18:45:58.996Z,100561.42
2019-04-07T18:48:36.047Z,100566.21
2019-04-07T18:51:16.021Z,100567.36
2019-04-07T18:53:47.506Z,100566.39
2019-04-07T18:56:22.598Z,100571.37
2019-04-07T18:58:56.404Z,100575.59
2019-04-07T19:01:45.648Z,100579.31
2019-04-07T19:04:17.318Z,100574.41
2019-04-07T19:06:53.863Z,100583.47
2019-04-07T19:09:29.853Z,100586.31
2019-04-07T19:12:20.092Z,100591.02
2019-04-07T19:15:06.959Z,100602.63
2019-04-07T19:17:43.141Z,100598.61
2019-04-07T19:20:30.599Z,100605.55
2019-04-07T19:23:04.419Z,100612.59
2019-04-07T19:25:44.436Z,100600.05
2019-04-07T19:28:34.077Z,100611.17
2019-04-07T19:31:08.666Z,100612.28
2019-04-07T19:33:57.894Z,100611.34
2019-04-07T19:36:28.054Z,100608.75
2019-04-07T19:39:21.395Z,100613.58
2019-04-07T19:42:04.604Z,100610.39
2019-04-07T19:44:37.105Z,100614.84
2019-04-07T19:47:14.173Z,100613.73
2019-04-07T19:49:50.182Z,100608.81
2019-04-07T19:52:38.374Z,100612.63
2019-04-07T19:55:09.999Z,100608.38
2019-04-07T19:57:58.013Z,100613.70
2019-04-07T20:00:35.677Z,100617.76
2019-04-07T20:03:24.180Z,100614.19
2019-04-07T20:05:56.121Z,100615.83
2019-04-07T20:08:34.910Z,100610.77
2019-04-07T20:11:11.796Z,100616.84
2019-04-07T20:13:46.592Z,100619.05
2019-04-07T20:16:33.701Z,100620.29
2019-04-07T20:19:13.773Z,100615.84
2019-04-07T20:21:54.785Z,100618.94
2019-04-07T20:24:23.875Z,100619.06
2019-04-07T20:27:03.720Z,100618.84
2019-04-07T20:29:41.374Z,100625.95
2019-04-07T20:32:10.968Z,100623.37
2019-04-07T20:34:48.367Z,100624.59
2019-04-07T20:37:23.492Z,100631.39
2019-04-07T20:40:06.787Z,100628.17
2019-04-07T20:42:40.450Z,100636.68
2019-04-07T20:45:24.551Z,100642.34
2019-04-07T20:48:00.166Z,100634.97
2019-04-07T20:50:49.949Z,100636.72
2019-04-07T20:53:23.974Z,100644.59
2019-04-07T20:56:12.935Z,100643.61
2019-04-07T20:58:54.917Z,100637.83
2019-04-07T21:01:22.193Z,100637.36
2019-04-07T21:03:52.991Z,100636.73
2019-04-07T21:06:42.180Z,100641.14
2019-04-07T21:09:33.370Z,100644.48
2019-04-07T21:12:21.184Z,100640.30
2019-04-07T21:14:52.042Z,100639.19
2019-04-07T21:17:30.394Z,100639.45
2019-04-07T21:20:18.123Z,100645.23
2019-04-07T21:23:01.115Z,100644.11
2019-04-07T21:25:31.953Z,100642.41
2019-04-07T21:28:12.653Z,100646.09
2019-04-07T21:30:46.315Z,100649.53
2019-04-07T21:33:23.797Z,100645.97
2019-04-07T21:35:58.963Z,100645.47
2019-04-07T21:38:45.417Z,100648.56
2019-04-07T21:41:32.774Z,100646.36
2019-04-07T21:44:15.555Z,100646.58
2019-04-07T21:47:11.995Z,100645.85
2019-04-07T21:49:53.737Z,100645.47
2019-04-07T21:53:04.463Z,100641.41
2019-04-07T21:55:43.354Z,100639.09
2019-04-07T21:58:30.425Z,100642.88
2019-04-07T22:01:08.273Z,100645.36
2019-04-07T22:03:46.180Z,100646.47
2019-04-07T22:06:17.740Z,100644.23
2019-04-07T22:08:56.318Z,100644.13
2019-04-07T22:11:28.979Z,100646.48
2019-04-07T22:13:57.467Z,100649.03
2019-04-07T22:16:30.564Z,100645.32
2019-04-07T22:19:20.195Z,100648.76
2019-04-07T22:21:53.294Z,100649.94
2019-04-07T22:24:20.731Z,100651.16
2019-04-07T22:26:50.559Z,100650.92
2019-04-07T22:29:20.576Z,100657.39
2019-04-07T22:31:51.569Z,100660.09
2019-04-07T22:34:20.920Z,100659.45
2019-04-07T22:36:50.162Z,100655.30
2019-04-07T22:39:19.346Z,100653.92
2019-04-07T22:41:48.624Z,100656.85
2019-04-07T22:44:19.868Z,100657.84
2019-04-07T22:46:51.933Z,100655.66
2019-04-07T22:49:19.876Z,100656.63
2019-04-07T22:51:49.809Z,100659.27
2019-04-07T22:54:19.872Z,100664.09
2019-04-07T22:56:49.093Z,100662.87
2019-04-07T22:59:18.370Z,100663.56
2019-04-07T23:01:47.623Z,100667.51
2019-04-07T23:04:16.821Z,100673.63
2019-04-07T23:06:46.021Z,100666.97
2019-04-07T23:09:15.548Z,100669.97
2019-04-07T23:11:44.824Z,100671.77
2019-04-07T23:14:13.998Z,100672.09
2019-04-07T23:16:43.194Z,100672.37
2019-04-07T23:19:12.469Z,100676.29
2019-04-07T23:21:41.854Z,100671.80
2019-04-07T23:24:11.218Z,100674.14
2019-04-07T23:26:40.532Z,100673.40
2019-04-07T23:29:10.054Z,100670.53
2019-04-07T23:31:40.439Z,100664.94
2019-04-07T23:34:10.563Z,100663.42
2019-04-07T23:36:39.820Z,100658.84
2019-04-07T23:39:09.864Z,100659.03
2019-04-07T23:41:39.711Z,100654.56
2019-04-07T23:44:09.423Z,100656.73
2019-04-07T23:46:39.372Z,100657.34
2019-04-07T23:49:08.524Z,100662.38
2019-04-07T23:51:37.733Z,100661.24
2019-04-07T23:54:09.138Z,100661.56
2019-04-07T23:56:40.199Z,100664.86
2019-04-07T23:59:10.389Z,100662.27
